Time;durP1;ratioP1;P1;durP2;ratioP2;P2;SDS_P1;SDS_P2;PMS_P1;PMS_P2;Temp;Humidity;BMP_temperature;BMP_pressure;BME280_temperature;BME280_humidity;BME280_pressure;Samples;Min_cycle;Max_cycle;Signal;HPM_P1;HPM_P2
2022/12/22 03:26:53;;;;;;;25.35;23.02;;;7.10;99.90;;;;;;4246744;28;20052;-86
2022/12/22 03:29:13;;;;;;;25.90;22.92;;;7.10;99.90;;;;;;4245564;28;20058;-87
2022/12/22 03:31:33;;;;;;;25.55;22.85;;;7.10;99.90;;;;;;4241940;28;20043;-87
2022/12/22 03:33:53;;;;;;;26.08;22.80;;;7.20;99.90;;;;;;4250960;27;20050;-87
2022/12/22 03:36:13;;;;;;;24.33;22.13;;;7.10;99.90;;;;;;4242827;28;20288;-87
2022/12/22 03:38:34;;;;;;;24.60;22.25;;;7.20;99.90;;;;;;4245132;28;20385;-86
2022/12/22 03:40:54;;;;;;;23.95;21.95;;;7.20;99.90;;;;;;4235476;28;20109;-87
2022/12/22 03:48:33;;;;;;;25.30;22.95;;;7.10;99.90;;;;;;4248150;28;20043;-87
2022/12/22 03:50:53;;;;;;;24.50;22.20;;;7.10;99.90;;;;;;4237609;28;20042;-87
2022/12/22 03:53:13;;;;;;;27.88;25.15;;;7.10;99.90;;;;;;4246763;28;20038;-87
2022/12/22 03:55:33;;;;;;;26.13;23.50;;;7.00;99.90;;;;;;4242054;28;20385;-87
2022/12/22 03:57:52;;;;;;;27.98;25.48;;;7.00;99.90;;;;;;4237277;28;20097;-86
2022/12/22 04:00:13;;;;;;;26.85;23.92;;;7.00;99.90;;;;;;4246926;28;20072;-87
2022/12/22 04:02:33;;;;;;;26.13;23.60;;;7.00;99.90;;;;;;4247648;28;20303;-87
2022/12/22 04:04:53;;;;;;;26.75;24.15;;;7.00;99.90;;;;;;4248528;28;20085;-87
2022/12/22 04:07:13;;;;;;;29.83;27.02;;;7.00;99.90;;;;;;4238176;28;20409;-87
2022/12/22 04:09:33;;;;;;;28.17;25.70;;;7.00;99.90;;;;;;4243407;28;20096;-87
2022/12/22 04:14:31;;;;;;;30.38;27.35;;;7.00;99.90;;;;;;4247801;28;20041;-87
2022/12/22 04:16:54;;;;;;;;;;;7.00;99.90;;;;;;4254013;28;20062;-86
2022/12/22 04:19:14;;;;;;;29.90;26.95;;;7.00;99.90;;;;;;4241348;28;19923;-87
2022/12/22 04:21:35;;;;;;;29.90;26.92;;;7.00;99.90;;;;;;4236509;28;20123;-86
2022/12/22 04:23:55;;;;;;;31.20;28.30;;;6.90;99.90;;;;;;4232769;28;20043;-87
2022/12/22 04:26:15;;;;;;;32.90;29.58;;;6.90;99.90;;;;;;4247400;28;20072;-87
2022/12/22 04:28:35;;;;;;;31.20;28.20;;;6.90;99.90;;;;;;4234385;28;20094;-87
2022/12/22 04:30:56;;;;;;;32.60;28.83;;;6.90;99.90;;;;;;4231625;28;20054;-87
2022/12/22 04:33:17;;;;;;;32.03;28.80;;;6.90;99.90;;;;;;4258100;28;20038;-87
2022/12/22 04:35:37;;;;;;;34.85;31.23;;;6.90;99.90;;;;;;4261470;27;20030;-87
2022/12/22 04:37:57;;;;;;;34.45;31.15;;;6.90;99.90;;;;;;4242571;28;20039;-86
2022/12/22 04:40:17;;;;;;;34.65;29.42;;;6.90;99.90;;;;;;4251063;28;20126;-87
2022/12/22 04:42:36;;;;;;;32.47;29.15;;;6.90;99.90;;;;;;4245643;28;20116;-87
2022/12/22 04:44:56;;;;;;;30.73;27.40;;;7.00;99.90;;;;;;4243784;28;20089;-87
2022/12/22 04:47:16;;;;;;;33.20;27.73;;;7.00;99.90;;;;;;4246457;28;20099;-86
2022/12/22 04:49:36;;;;;;;30.05;27.13;;;7.00;99.90;;;;;;4239993;28;20164;-87
2022/12/22 04:51:56;;;;;;;30.33;27.25;;;7.00;99.90;;;;;;4238098;28;20070;-87
2022/12/22 04:54:16;;;;;;;35.63;28.58;;;7.00;99.90;;;;;;4246985;28;20089;-86
2022/12/22 04:56:36;;;;;;;30.85;27.27;;;7.10;99.90;;;;;;4239090;28;20047;-86
2022/12/22 04:58:56;;;;;;;30.90;27.80;;;7.00;99.90;;;;;;4245349;28;20051;-87
2022/12/22 05:01:17;;;;;;;29.55;26.50;;;7.00;99.90;;;;;;4239764;28;20050;-87
2022/12/22 05:03:37;;;;;;;29.75;26.95;;;7.10;99.90;;;;;;4252003;28;20046;-87
2022/12/22 05:05:57;;;;;;;28.50;25.70;;;7.00;99.90;;;;;;4247794;28;20332;-87
2022/12/22 05:08:17;;;;;;;29.23;26.23;;;7.00;99.90;;;;;;4237774;28;20093;-87
2022/12/22 05:10:37;;;;;;;30.90;27.17;;;7.10;99.90;;;;;;4248086;28;20050;-87
2022/12/22 05:12:57;;;;;;;27.95;25.50;;;7.00;99.90;;;;;;4245495;28;20042;-87
2022/12/22 05:15:17;;;;;;;30.85;27.05;;;7.00;99.90;;;;;;4243837;28;20234;-87
2022/12/22 05:17:37;;;;;;;27.27;24.80;;;7.10;99.90;;;;;;4249719;28;20083;-87
2022/12/22 05:19:57;;;;;;;29.13;26.42;;;7.10;99.90;;;;;;4249945;28;20227;-87
2022/12/22 05:22:16;;;;;;;28.13;25.33;;;7.10;99.90;;;;;;4244166;28;20246;-87
2022/12/22 05:24:36;;;;;;;29.92;27.15;;;7.10;99.90;;;;;;4245297;28;20043;-87
2022/12/22 05:26:55;;;;;;;32.85;27.05;;;7.10;99.90;;;;;;4245333;28;20114;-87
2022/12/22 05:29:15;;;;;;;48.10;30.20;;;7.10;99.90;;;;;;4233973;28;20071;-86
2022/12/22 05:31:35;;;;;;;59.95;32.13;;;7.10;99.90;;;;;;4233813;28;20042;-87
2022/12/22 05:33:58;;;;;;;51.45;29.73;;;7.10;99.90;;;;;;4239603;27;20054;-87
2022/12/22 05:36:18;;;;;;;49.05;31.35;;;7.10;99.90;;;;;;4248928;28;20047;-87
2022/12/22 05:38:39;;;;;;;45.03;30.95;;;7.10;99.90;;;;;;4247535;28;20055;-87
2022/12/22 05:40:58;;;;;;;50.80;30.83;;;7.10;99.90;;;;;;4245017;28;20234;-87
2022/12/22 05:43:23;;;;;;;35.35;28.25;;;7.10;99.90;;;;;;4232367;28;20116;-87
2022/12/22 05:45:45;;;;;;;34.55;27.58;;;7.10;99.90;;;;;;4232071;28;20051;-87
2022/12/22 05:48:05;;;;;;;37.22;27.85;;;7.10;99.90;;;;;;4246512;28;20065;-86
2022/12/22 05:50:25;;;;;;;40.45;28.70;;;7.20;99.90;;;;;;4247250;28;20054;-87
2022/12/22 05:52:45;;;;;;;37.75;28.13;;;7.20;99.90;;;;;;4229047;28;20082;-87
2022/12/22 05:55:06;;;;;;;31.90;26.55;;;7.20;99.90;;;;;;4230252;28;20386;-87
2022/12/22 05:57:26;;;;;;;36.92;29.95;;;7.20;99.90;;;;;;4244706;28;20042;-87
2022/12/22 05:59:45;;;;;;;48.58;39.67;;;7.20;99.90;;;;;;4233683;28;20047;-87
2022/12/22 06:02:05;;;;;;;66.75;49.60;;;7.20;99.90;;;;;;4234204;28;20050;-87
2022/12/22 06:04:25;;;;;;;40.30;34.63;;;7.20;99.90;;;;;;4245860;28;20050;-87
2022/12/22 06:06:45;;;;;;;32.88;29.75;;;7.20;99.90;;;;;;4242973;28;20046;-87
2022/12/22 06:09:05;;;;;;;32.08;28.27;;;7.20;99.90;;;;;;4228357;28;20408;-87
2022/12/22 06:11:24;;;;;;;29.77;26.70;;;7.20;99.90;;;;;;4239721;28;20295;-87
2022/12/22 06:13:45;;;;;;;28.63;25.73;;;7.20;99.90;;;;;;4240349;28;20065;-87
2022/12/22 06:16:05;;;;;;;28.73;26.05;;;7.20;99.90;;;;;;4243082;28;20317;-87
2022/12/22 06:18:25;;;;;;;28.40;24.42;;;7.10;99.90;;;;;;4245004;28;20074;-86
2022/12/22 06:20:46;;;;;;;27.90;25.33;;;7.10;99.90;;;;;;4231314;28;20089;-86
2022/12/22 06:23:06;;;;;;;25.48;22.90;;;7.20;99.90;;;;;;4237986;28;20158;-87
2022/12/22 06:25:27;;;;;;;27.30;24.70;;;7.10;99.90;;;;;;4246936;28;20104;-86
2022/12/22 06:27:47;;;;;;;26.80;24.02;;;7.20;99.90;;;;;;4238906;28;20480;-86
2022/12/22 06:30:08;;;;;;;33.47;27.88;;;7.20;99.90;;;;;;4233725;28;20051;-87
2022/12/22 06:32:28;;;;;;;29.25;26.52;;;7.10;99.90;;;;;;4247804;28;20318;-86
2022/12/22 06:34:48;;;;;;;38.85;28.55;;;7.10;99.90;;;;;;4243950;28;20046;-86
2022/12/22 06:37:08;;;;;;;33.97;27.08;;;7.10;99.90;;;;;;4242404;28;20054;-85
2022/12/22 06:39:27;;;;;;;31.52;28.48;;;7.20;99.90;;;;;;4236044;28;20043;-85
2022/12/22 06:44:26;;;;;;;36.22;31.42;;;7.20;99.90;;;;;;4250024;28;20373;-86
2022/12/22 06:46:46;;;;;;;36.60;30.50;;;7.20;99.90;;;;;;4249250;28;20046;-85
2022/12/22 06:49:07;;;;;;;33.42;29.92;;;7.20;99.90;;;;;;4236588;28;20035;-85
2022/12/22 06:51:26;;;;;;;43.40;34.47;;;7.30;99.90;;;;;;4242273;28;20149;-86
2022/12/22 06:53:46;;;;;;;45.05;36.80;;;7.20;99.90;;;;;;4249249;28;20066;-86
2022/12/22 06:56:06;;;;;;;47.17;33.03;;;7.20;99.90;;;;;;4238217;28;20054;-86
2022/12/22 06:58:25;;;;;;;39.60;33.33;;;7.30;99.90;;;;;;4252433;28;20061;-86
2022/12/22 07:00:48;;;;;;;40.58;33.25;;;7.30;99.90;;;;;;4240864;28;20049;-86
2022/12/22 07:03:08;;;;;;;43.92;33.78;;;7.30;99.90;;;;;;4254722;28;20046;-86
2022/12/22 07:05:30;;;;;;;34.40;30.67;;;7.30;99.90;;;;;;4241380;28;20055;-86
2022/12/22 07:07:51;;;;;;;34.22;29.92;;;7.30;99.90;;;;;;4249109;28;20063;-86
2022/12/22 07:10:12;;;;;;;32.00;29.02;;;7.30;99.90;;;;;;4248956;28;20049;-86
2022/12/22 07:12:32;;;;;;;35.20;31.55;;;7.30;99.90;;;;;;4243882;28;20034;-86
2022/12/22 07:14:51;;;;;;;37.10;31.00;;;7.30;99.90;;;;;;4246433;28;20077;-86
2022/12/22 07:17:11;;;;;;;36.72;32.03;;;7.30;99.90;;;;;;4249538;28;20062;-86
2022/12/22 07:19:31;;;;;;;35.60;30.98;;;7.30;99.90;;;;;;4240669;28;20047;-86
2022/12/22 07:21:51;;;;;;;32.13;28.80;;;7.30;99.90;;;;;;4246506;28;20265;-85
2022/12/22 07:24:10;;;;;;;31.55;28.42;;;7.30;99.90;;;;;;4245543;28;20106;-85
2022/12/22 07:26:30;;;;;;;29.80;26.85;;;7.30;99.90;;;;;;4245435;28;20289;-86
2022/12/22 07:28:50;;;;;;;30.52;27.73;;;7.40;99.90;;;;;;4250035;28;20073;-86
2022/12/22 07:31:11;;;;;;;42.20;35.08;;;7.40;99.90;;;;;;4245955;28;20053;-85
2022/12/22 07:33:31;;;;;;;41.33;33.50;;;7.40;99.90;;;;;;4230905;28;20102;-85
2022/12/22 07:36:06;;;;;;;36.50;32.55;;;7.40;99.90;;;;;;4245907;28;20077;-85
2022/12/22 07:38:26;;;;;;;39.92;35.00;;;7.40;99.90;;;;;;4243120;28;20070;-85
2022/12/22 07:40:46;;;;;;;54.05;39.88;;;7.40;99.90;;;;;;4250815;28;20046;-85
2022/12/22 07:43:11;;;;;;;36.20;32.42;;;7.40;99.90;;;;;;4249094;28;20073;-86
2022/12/22 07:45:32;;;;;;;33.95;30.33;;;7.40;99.90;;;;;;4252119;28;20057;-85
2022/12/22 07:48:01;;;;;;;34.15;30.45;;;7.40;99.90;;;;;;4241233;28;20047;-85
2022/12/22 07:50:23;;;;;;;34.60;30.88;;;7.40;99.90;;;;;;4245498;28;20058;-85
2022/12/22 07:52:44;;;;;;;;;;;7.40;99.90;;;;;;4247745;28;20046;-85
2022/12/22 07:55:04;;;;;;;39.78;31.80;;;7.50;99.90;;;;;;4246802;28;20230;-85
2022/12/22 07:57:25;;;;;;;34.38;30.80;;;7.40;99.90;;;;;;4232277;28;20050;-85
2022/12/22 07:59:44;;;;;;;42.08;33.08;;;7.40;99.90;;;;;;4237392;28;20142;-85
2022/12/22 08:02:04;;;;;;;35.90;32.13;;;7.50;99.90;;;;;;4239648;28;20059;-85
2022/12/22 08:04:24;;;;;;;34.20;30.27;;;7.40;99.90;;;;;;4241913;28;20330;-85
2022/12/22 08:06:45;;;;;;;32.42;29.35;;;7.40;99.90;;;;;;4242234;28;20365;-85
2022/12/22 08:09:07;;;;;;;27.45;24.67;;;7.50;99.90;;;;;;4247853;28;20088;-85
2022/12/22 08:11:26;;;;;;;27.45;24.70;;;7.50;99.90;;;;;;4227850;28;20064;-85
2022/12/22 08:13:48;;;;;;;32.65;25.08;;;7.50;99.90;;;;;;4233633;28;20046;-85
2022/12/22 08:16:11;;;;;;;31.13;27.35;;;7.50;99.90;;;;;;4246485;28;20069;-85
2022/12/22 08:18:31;;;;;;;28.00;25.45;;;7.50;99.90;;;;;;4240319;28;20047;-85
2022/12/22 08:20:51;;;;;;;26.92;24.02;;;7.60;99.90;;;;;;4245892;28;20054;-85
2022/12/22 08:23:11;;;;;;;27.73;25.30;;;7.60;99.90;;;;;;4235409;28;20077;-85
2022/12/22 08:25:33;;;;;;;28.67;22.90;;;7.60;99.90;;;;;;4235857;28;20074;-85
2022/12/22 08:27:56;;;;;;;27.10;24.02;;;7.60;99.90;;;;;;4248567;28;20343;-85
2022/12/22 08:30:16;;;;;;;26.35;23.70;;;7.60;99.90;;;;;;4247260;28;20084;-85
2022/12/22 08:32:37;;;;;;;27.20;24.55;;;7.60;99.90;;;;;;4250888;28;20108;-85
2022/12/22 08:34:56;;;;;;;26.13;23.60;;;7.60;99.90;;;;;;4247866;27;20050;-85
2022/12/22 08:37:21;;;;;;;37.85;32.03;;;7.70;99.90;;;;;;4244418;28;20070;-85
2022/12/22 08:39:43;;;;;;;59.58;48.33;;;7.70;99.90;;;;;;4242383;28;20046;-85
2022/12/22 08:42:08;;;;;;;67.68;52.67;;;7.80;99.90;;;;;;4229868;28;20092;-85
2022/12/22 08:44:29;;;;;;;90.18;62.83;;;7.80;99.90;;;;;;4234491;28;20105;-85
2022/12/22 08:46:50;;;;;;;88.47;67.38;;;7.80;99.90;;;;;;4239097;28;20420;-85
2022/12/22 08:49:11;;;;;;;72.03;50.13;;;7.80;99.90;;;;;;4231980;28;20081;-85
2022/12/22 08:51:31;;;;;;;43.50;37.45;;;7.80;99.90;;;;;;4244688;28;20055;-86
2022/12/22 08:53:50;;;;;;;68.30;53.50;;;7.80;99.90;;;;;;4245562;28;20043;-85
2022/12/22 08:56:26;;;;;;;142.75;88.30;;;7.80;99.90;;;;;;4246319;28;20042;-86
2022/12/22 08:58:46;;;;;;;128.18;68.20;;;7.80;99.90;;;;;;4249722;28;20050;-85
2022/12/22 09:01:06;;;;;;;94.95;56.17;;;7.70;99.90;;;;;;4245336;28;20366;-85
2022/12/22 09:03:26;;;;;;;89.18;43.72;;;7.70;99.90;;;;;;4250507;28;20369;-85
2022/12/22 09:05:46;;;;;;;69.68;38.20;;;7.70;99.90;;;;;;4244893;28;20085;-85
2022/12/22 09:08:06;;;;;;;60.63;33.80;;;7.70;99.90;;;;;;4232938;28;20039;-85
2022/12/22 09:11:03;;;;;;;52.25;34.50;;;7.70;99.90;;;;;;4237991;28;20070;-86
2022/12/22 09:13:22;;;;;;;36.25;31.95;;;7.70;99.90;;;;;;4251754;28;20234;-85
2022/12/22 09:15:42;;;;;;;50.35;37.60;;;7.70;99.90;;;;;;4261334;28;20038;-85
2022/12/22 09:18:02;;;;;;;37.50;32.53;;;7.70;99.90;;;;;;4259528;28;20027;-86
2022/12/22 09:20:22;;;;;;;36.92;32.30;;;7.70;99.90;;;;;;4265749;28;20077;-85
2022/12/22 09:22:42;;;;;;;49.05;37.60;;;7.70;99.90;;;;;;4236652;28;20038;-85
2022/12/22 09:25:02;;;;;;;48.17;40.22;;;7.70;99.90;;;;;;4240031;28;20050;-85
2022/12/22 09:27:22;;;;;;;41.17;36.83;;;7.80;99.90;;;;;;4246901;28;20077;-85
2022/12/22 09:29:42;;;;;;;35.47;31.92;;;7.80;99.90;;;;;;4236306;28;20051;-86
2022/12/22 09:32:03;;;;;;;31.98;28.45;;;7.80;99.90;;;;;;4248643;28;20042;-86
2022/12/22 09:34:23;;;;;;;30.38;27.33;;;7.80;99.90;;;;;;4232329;28;20082;-86
2022/12/22 09:36:43;;;;;;;28.70;25.92;;;7.80;99.90;;;;;;4251813;28;20083;-86
2022/12/22 09:39:05;;;;;;;27.08;24.70;;;7.80;99.90;;;;;;4245847;28;20039;-86
2022/12/22 09:41:33;;;;;;;31.55;28.65;;;7.80;99.90;;;;;;4247042;28;20243;-86
2022/12/22 09:43:55;;;;;;;31.02;28.17;;;7.80;99.90;;;;;;4233136;28;20042;-86
2022/12/22 09:46:28;;;;;;;30.75;27.75;;;7.90;99.90;;;;;;4251682;28;20054;-86
2022/12/22 09:48:49;;;;;;;26.17;23.45;;;7.80;99.90;;;;;;4246026;28;20111;-86
2022/12/22 09:51:12;;;;;;;25.45;23.20;;;7.80;99.90;;;;;;4244896;28;20062;-86
2022/12/22 09:53:32;;;;;;;24.60;21.98;;;7.80;99.90;;;;;;4247747;28;20054;-86
2022/12/22 09:55:52;;;;;;;19.65;18.33;;;7.80;99.90;;;;;;4230711;28;20046;-86
2022/12/22 09:58:25;;;;;;;20.42;18.58;;;7.90;99.90;;;;;;4240089;28;20097;-86
2022/12/22 10:00:57;;;;;;;;;;;7.80;99.90;;;;;;4228981;28;20046;-86
2022/12/22 10:03:39;;;;;;;24.23;21.90;;;7.90;99.90;;;;;;4228098;28;19923;-86
2022/12/22 10:06:27;;;;;;;26.42;23.77;;;7.90;99.90;;;;;;4246554;28;20050;-86
2022/12/22 10:08:46;;;;;;;40.00;29.85;;;7.90;99.90;;;;;;4245703;28;20057;-86
2022/12/22 10:11:11;;;;;;;32.35;29.00;;;7.90;99.90;;;;;;4244711;28;20123;-86
2022/12/22 10:13:31;;;;;;;35.42;31.65;;;7.90;99.90;;;;;;4242393;28;20319;-86
2022/12/22 10:15:52;;;;;;;37.65;32.10;;;7.90;99.90;;;;;;4226299;28;20097;-86
2022/12/22 10:18:24;;;;;;;35.53;31.95;;;8.00;99.90;;;;;;4232143;28;20047;-86
2022/12/22 10:21:12;;;;;;;32.33;29.15;;;7.90;99.90;;;;;;4223640;28;20258;-86
2022/12/22 10:23:37;;;;;;;35.10;31.65;;;7.90;99.90;;;;;;4215989;28;20344;-86
2022/12/22 10:25:57;;;;;;;31.02;27.75;;;7.90;99.90;;;;;;4230005;28;20097;-86
2022/12/22 10:28:46;;;;;;;31.35;28.15;;;7.90;99.90;;;;;;4227772;28;20046;-86
2022/12/22 10:31:20;;;;;;;31.55;28.33;;;8.00;99.90;;;;;;4231090;28;20047;-86
2022/12/22 10:33:42;;;;;;;29.90;27.13;;;8.10;99.90;;;;;;4215275;28;20142;-86
2022/12/22 10:36:07;;;;;;;27.80;25.15;;;8.10;99.90;;;;;;4211244;28;20146;-86
2022/12/22 10:38:56;;;;;;;26.70;24.30;;;8.10;99.90;;;;;;4231044;28;20078;-86
2022/12/22 10:41:19;;;;;;;26.85;23.55;;;8.10;99.90;;;;;;4229689;28;20074;-86
2022/12/22 10:43:47;;;;;;;23.52;21.33;;;8.20;99.90;;;;;;4211122;28;20336;-86
2022/12/22 10:46:07;;;;;;;25.55;22.88;;;8.20;99.90;;;;;;4229528;28;20088;-86
2022/12/22 10:48:38;;;;;;;25.23;22.63;;;8.30;99.90;;;;;;4226962;28;20097;-86
2022/12/22 10:50:59;;;;;;;25.55;23.08;;;8.30;99.90;;;;;;4232958;28;20070;-86
2022/12/22 10:53:18;;;;;;;27.65;25.05;;;8.30;99.90;;;;;;4230366;28;20086;-86
2022/12/22 10:55:38;;;;;;;25.00;22.80;;;8.20;99.90;;;;;;4232391;28;20051;-86
2022/12/22 10:58:10;;;;;;;22.17;20.45;;;8.30;99.90;;;;;;4232127;28;20046;-86
2022/12/22 11:00:31;;;;;;;24.98;22.40;;;8.30;99.90;;;;;;4222145;28;20059;-86
2022/12/22 11:02:53;;;;;;;28.30;25.38;;;8.30;99.90;;;;;;4211560;28;20363;-86
2022/12/22 11:05:13;;;;;;;32.55;28.98;;;8.30;99.90;;;;;;4226188;28;20050;-86
2022/12/22 11:07:38;;;;;;;29.05;26.38;;;8.30;99.90;;;;;;4232399;28;20089;-86
2022/12/22 11:09:58;;;;;;;28.52;25.83;;;8.40;99.90;;;;;;4221203;28;20396;-86
2022/12/22 11:12:29;;;;;;;29.10;26.30;;;8.30;99.90;;;;;;4226793;28;20055;-86
2022/12/22 11:15:21;;;;;;;31.83;28.30;;;8.30;99.90;;;;;;4228770;28;20084;-86
2022/12/22 11:18:12;;;;;;;31.52;26.95;;;8.30;99.90;;;;;;4182120;28;20082;-86
2022/12/22 11:21:10;;;;;;;33.63;28.98;;;8.40;99.90;;;;;;4213380;28;20112;-86
2022/12/22 11:24:09;;;;;;;36.42;30.08;;;8.40;99.90;;;;;;4231925;28;20102;-86
2022/12/22 11:26:47;;;;;;;31.95;28.85;;;8.40;99.90;;;;;;4171929;28;20388;-86
2022/12/22 11:29:20;;;;;;;23.90;21.70;;;8.40;99.90;;;;;;4181363;28;20114;-86
2022/12/22 11:31:59;;;;;;;41.13;32.55;;;8.40;99.90;;;;;;4179620;28;20427;-86
2022/12/22 11:34:29;;;;;;;38.35;33.90;;;8.50;99.90;;;;;;4180809;28;20047;-86
2022/12/22 11:37:07;;;;;;;48.55;38.47;;;8.50;99.90;;;;;;4170614;28;20177;-86
2022/12/22 11:39:33;;;;;;;38.83;34.45;;;8.50;99.90;;;;;;4182298;28;20265;-86
2022/12/22 11:42:05;;;;;;;39.33;34.45;;;8.50;99.90;;;;;;4168094;28;20194;-86
2022/12/22 11:44:34;;;;;;;45.78;41.22;;;8.50;99.90;;;;;;4163410;28;20095;-86
2022/12/22 11:47:11;;;;;;;38.85;34.83;;;8.60;99.90;;;;;;4166800;28;20069;-86
2022/12/22 11:49:43;;;;;;;30.00;26.13;;;8.60;99.90;;;;;;4164898;28;20052;-85
2022/12/22 11:52:35;;;;;;;27.52;25.08;;;8.60;99.90;;;;;;4183140;28;20117;-85
2022/12/22 11:55:00;;;;;;;36.97;32.00;;;8.60;99.90;;;;;;4165243;28;20080;-85
2022/12/22 11:57:51;;;;;;;34.22;30.65;;;8.60;99.90;;;;;;4169564;28;20081;-85
2022/12/22 12:00:18;;;;;;;35.35;30.27;;;8.50;99.90;;;;;;4179487;28;20044;-85
2022/12/22 12:02:51;;;;;;;32.35;28.90;;;8.50;99.90;;;;;;4187558;28;20247;-85
2022/12/22 12:05:49;;;;;;;30.88;27.27;;;8.60;99.90;;;;;;4226475;28;20082;-85
2022/12/22 12:08:38;;;;;;;29.63;26.33;;;8.60;99.90;;;;;;4227995;28;20055;-85
2022/12/22 12:11:19;;;;;;;41.42;35.15;;;8.60;99.90;;;;;;4216821;28;20142;-85
2022/12/22 12:13:58;;;;;;;44.90;36.90;;;8.70;99.90;;;;;;4230004;28;20070;-85
2022/12/22 12:16:49;;;;;;;33.28;29.70;;;8.70;99.90;;;;;;4232520;28;20046;-85
2022/12/22 12:19:09;;;;;;;29.63;26.52;;;8.70;99.90;;;;;;4232844;28;20366;-85
2022/12/22 12:21:47;;;;;;;45.28;38.33;;;8.70;99.90;;;;;;4233198;28;20053;-85
2022/12/22 12:24:31;;;;;;;41.83;36.42;;;8.70;99.90;;;;;;4215116;28;20082;-85
2022/12/22 12:26:59;;;;;;;37.85;33.83;;;8.70;99.90;;;;;;4214911;28;20394;-85
2022/12/22 12:29:24;;;;;;;42.25;33.03;;;8.70;99.90;;;;;;4230725;28;20054;-85
2022/12/22 12:31:59;;;;;;;49.42;41.80;;;8.70;99.90;;;;;;4216919;28;20039;-85
2022/12/22 12:34:21;;;;;;;47.08;41.92;;;8.70;99.90;;;;;;4233309;28;20134;-85
2022/12/22 12:36:51;;;;;;;37.10;30.63;;;8.70;99.90;;;;;;4230644;28;20093;-85
2022/12/22 12:39:23;;;;;;;30.50;27.50;;;8.80;99.90;;;;;;4217326;28;20047;-89
2022/12/22 12:42:04;;;;;;;49.77;42.77;;;8.80;99.90;;;;;;4230837;28;20034;-88
2022/12/22 12:44:30;;;;;;;33.72;29.15;;;8.70;99.90;;;;;;4230302;28;20050;-88
2022/12/22 12:46:50;;;;;;;58.50;47.25;;;8.80;99.90;;;;;;4213924;28;20394;-88
2022/12/22 12:49:34;;;;;;;46.28;40.72;;;8.80;99.90;;;;;;4222613;28;20110;-88
2022/12/22 12:51:55;;;;;;;42.88;38.30;;;8.80;99.90;;;;;;4229713;28;20363;-88
2022/12/22 12:54:32;;;;;;;44.80;39.97;;;8.80;99.90;;;;;;4215967;28;20046;-89
2022/12/22 12:57:09;;;;;;;48.38;41.42;;;8.80;99.90;;;;;;4219584;28;20220;-89
2022/12/22 12:59:40;;;;;;;48.60;40.97;;;8.80;99.90;;;;;;4211561;28;20043;-88
2022/12/22 13:02:00;;;;;;;36.10;32.25;;;8.80;99.90;;;;;;4226765;28;20054;-88
2022/12/22 13:04:59;;;;;;;27.77;24.83;;;8.80;99.90;;;;;;4217332;28;20050;-89
2022/12/22 13:07:58;;;;;;;42.85;36.75;;;8.80;99.90;;;;;;4213235;28;20051;-88
2022/12/22 13:10:23;;;;;;;50.45;40.33;;;8.80;99.90;;;;;;4225573;28;20051;-89
2022/12/22 13:12:52;;;;;;;55.53;45.58;;;8.80;99.90;;;;;;4229225;28;20043;-89
2022/12/22 13:15:36;;;;;;;42.85;34.55;;;8.80;99.90;;;;;;4229029;28;20043;-89
2022/12/22 13:17:57;;;;;;;24.92;22.45;;;8.80;99.90;;;;;;4230308;28;20078;-89
2022/12/22 13:20:32;;;;;;;29.92;26.73;;;8.80;99.90;;;;;;4233530;28;20073;-89
2022/12/22 13:22:57;;;;;;;25.45;21.63;;;8.90;99.90;;;;;;4213095;28;20119;-86
2022/12/22 13:25:17;;;;;;;25.00;22.50;;;8.90;99.90;;;;;;4213882;28;20079;-88
2022/12/22 13:27:38;;;;;;;26.30;23.73;;;8.90;99.90;;;;;;4232809;28;20042;-81
2022/12/22 13:29:58;;;;;;;24.35;22.25;;;8.90;99.90;;;;;;4222434;28;20117;-81
2022/12/22 13:32:26;;;;;;;21.27;19.35;;;8.90;99.90;;;;;;4225948;28;20047;-81
2022/12/22 13:34:51;;;;;;;22.30;20.30;;;8.90;99.90;;;;;;4215933;28;20061;-81
2022/12/22 13:37:39;;;;;;;24.63;22.52;;;8.90;99.90;;;;;;4230308;28;20361;-81
2022/12/22 13:40:20;;;;;;;24.67;22.42;;;8.90;99.90;;;;;;4218701;28;20051;-81
2022/12/22 13:42:52;;;;;;;25.73;23.13;;;9.00;99.90;;;;;;4224682;28;20035;-81
2022/12/22 13:45:33;;;;;;;32.03;28.83;;;8.90;99.90;;;;;;4244400;28;20055;-81
2022/12/22 13:47:53;;;;;;;36.28;32.72;;;8.90;99.90;;;;;;4241171;28;20050;-81
2022/12/22 13:50:24;;;;;;;30.65;27.67;;;8.90;99.90;;;;;;4212808;28;20078;-81
2022/12/22 13:52:44;;;;;;;39.17;34.95;;;8.90;99.90;;;;;;4228570;28;20055;-81
2022/12/22 13:55:14;;;;;;;40.92;35.95;;;8.90;99.90;;;;;;4232337;28;20081;-81
2022/12/22 13:57:34;;;;;;;41.17;36.67;;;8.90;99.90;;;;;;4227417;28;20056;-81
2022/12/22 13:59:54;;;;;;;41.40;36.85;;;9.00;99.90;;;;;;4229335;28;20100;-81
2022/12/22 14:02:17;;;;;;;35.88;32.33;;;8.90;99.90;;;;;;4227854;28;20278;-81
2022/12/22 14:04:38;;;;;;;;;;;8.90;99.90;;;;;;4210992;28;20090;-81
2022/12/22 14:07:09;;;;;;;46.05;35.95;;;8.90;99.90;;;;;;4227480;28;20014;-81
2022/12/22 14:09:29;;;;;;;40.67;35.13;;;8.90;99.90;;;;;;4225168;28;20082;-81
2022/12/22 14:12:00;;;;;;;41.35;34.60;;;8.90;99.90;;;;;;4216245;28;20059;-81
2022/12/22 14:14:33;;;;;;;33.83;30.27;;;8.90;99.90;;;;;;4225608;28;20936;-81
2022/12/22 14:16:56;;;;;;;35.25;31.33;;;8.90;99.90;;;;;;4227026;28;20129;-81
2022/12/22 14:19:18;;;;;;;39.20;35.03;;;8.90;99.90;;;;;;4229659;28;20034;-81
2022/12/22 14:21:40;;;;;;;42.33;37.78;;;9.00;99.90;;;;;;4227126;28;20270;-81
2022/12/22 14:24:00;;;;;;;43.03;36.58;;;9.00;99.90;;;;;;4214253;28;20047;-81
2022/12/22 14:26:25;;;;;;;45.97;40.75;;;8.90;99.90;;;;;;4227847;28;20075;-81
2022/12/22 14:28:52;;;;;;;42.72;36.35;;;9.00;99.90;;;;;;4228464;28;20087;-81
2022/12/22 14:31:12;;;;;;;33.75;30.30;;;9.00;99.90;;;;;;4225537;28;20081;-81
2022/12/22 14:33:33;;;;;;;41.65;36.25;;;9.10;99.90;;;;;;4230637;28;20038;-81
2022/12/22 14:36:23;;;;;;;65.72;58.60;;;9.10;99.90;;;;;;4229049;28;20108;-82
2022/12/22 14:38:48;;;;;;;60.42;48.72;;;9.10;99.90;;;;;;4234098;28;20077;-82
2022/12/22 14:41:45;;;;;;;55.97;45.63;;;9.00;99.90;;;;;;4232688;28;20372;-82
2022/12/22 14:44:24;;;;;;;59.90;45.83;;;9.00;99.90;;;;;;4231489;28;20078;-81
2022/12/22 14:47:00;;;;;;;42.15;35.70;;;9.00;99.90;;;;;;4231892;28;20123;-80
2022/12/22 14:49:20;;;;;;;39.03;33.95;;;9.10;99.90;;;;;;4228992;28;20066;-80
2022/12/22 14:51:41;;;;;;;42.72;35.53;;;9.10;99.90;;;;;;4237737;28;20066;-81
2022/12/22 14:54:01;;;;;;;34.55;30.88;;;9.10;99.90;;;;;;4237282;28;20138;-81
2022/12/22 14:56:22;;;;;;;36.15;32.38;;;9.10;99.90;;;;;;4230582;28;20043;-81
2022/12/22 14:58:43;;;;;;;58.17;41.58;;;9.10;99.90;;;;;;4230597;28;20039;-81
2022/12/22 15:01:27;;;;;;;38.33;34.22;;;9.10;99.90;;;;;;4234296;28;20108;-81
2022/12/22 15:04:00;;;;;;;34.47;31.05;;;9.10;99.90;;;;;;4232060;28;20234;-81
2022/12/22 15:06:42;;;;;;;39.67;35.50;;;9.10;99.90;;;;;;4232692;28;20103;-81
2022/12/22 15:09:05;;;;;;;51.00;41.85;;;9.10;99.90;;;;;;4230806;28;20055;-81
2022/12/22 15:11:25;;;;;;;109.75;39.97;;;9.10;99.90;;;;;;4232146;28;20297;-81
2022/12/22 15:13:48;;;;;;;41.00;33.45;;;9.00;99.90;;;;;;4229125;28;20074;-81
2022/12/22 15:16:13;;;;;;;57.78;43.65;;;9.00;99.90;;;;;;4228656;28;20081;-81
2022/12/22 15:18:33;;;;;;;58.88;47.63;;;9.00;99.90;;;;;;4232635;28;20082;-81
2022/12/22 15:20:56;;;;;;;57.28;43.47;;;9.00;99.90;;;;;;4230178;28;20054;-81
2022/12/22 15:23:17;;;;;;;57.05;46.78;;;8.90;99.90;;;;;;4220343;28;20138;-81
2022/12/22 15:25:37;;;;;;;55.10;44.38;;;8.90;99.90;;;;;;4231185;28;20054;-81
2022/12/22 15:27:57;;;;;;;42.60;37.90;;;8.90;99.90;;;;;;4214299;28;20035;-81
2022/12/22 15:30:20;;;;;;;48.47;38.38;;;8.90;99.90;;;;;;4235494;28;20107;-81
2022/12/22 15:32:46;;;;;;;51.50;42.13;;;9.00;99.90;;;;;;4227863;28;20051;-81
2022/12/22 15:35:22;;;;;;;53.90;41.67;;;8.90;99.90;;;;;;4212984;28;20048;-81
2022/12/22 15:37:43;;;;;;;60.30;48.05;;;8.90;99.90;;;;;;4227020;28;20100;-81
2022/12/22 15:40:11;;;;;;;45.92;36.88;;;8.80;99.90;;;;;;4228467;28;20105;-80
2022/12/22 15:42:31;;;;;;;44.05;37.30;;;8.90;99.90;;;;;;4232188;28;20108;-81
2022/12/22 15:44:50;;;;;;;46.70;37.13;;;8.80;99.90;;;;;;4231433;28;20133;-81
2022/12/22 15:47:11;;;;;;;45.97;38.97;;;8.80;99.90;;;;;;4233978;28;20146;-81
2022/12/22 15:49:31;;;;;;;48.33;37.10;;;8.80;99.90;;;;;;4231661;28;20088;-81
2022/12/22 15:51:55;;;;;;;51.92;36.20;;;8.80;99.90;;;;;;4214798;28;20107;-81
2022/12/22 15:54:16;;;;;;;47.03;38.33;;;8.80;99.90;;;;;;4233140;28;20147;-81
2022/12/22 15:56:36;;;;;;;44.50;36.30;;;8.80;99.90;;;;;;4226208;28;20639;-81
2022/12/22 15:58:56;;;;;;;53.00;40.67;;;8.80;99.90;;;;;;4235828;28;20069;-81
2022/12/22 16:01:15;;;;;;;47.67;41.83;;;8.80;99.90;;;;;;4228567;28;20043;-81
2022/12/22 16:03:36;;;;;;;55.28;43.15;;;8.80;99.90;;;;;;4229767;28;20399;-81